createdAt,value
2018-11-20T00:02:17.824Z,13.73
2018-11-20T00:07:38.564Z,15.10
2018-11-20T00:13:09.821Z,15.43
2018-11-20T00:18:30.770Z,14.57
2018-11-20T00:24:11.085Z,14.73
2018-11-20T00:29:32.167Z,13.87
2018-11-20T00:34:48.343Z,15.30
2018-11-20T00:39:57.682Z,13.13
2018-11-20T00:45:19.651Z,15.80
2018-11-20T00:50:53.609Z,14.97
2018-11-20T00:56:52.756Z,13.60
2018-11-20T01:02:17.748Z,15.93
2018-11-20T01:07:35.934Z,15.40
2018-11-20T01:12:48.053Z,16.97
2018-11-20T01:18:09.199Z,15.97
2018-11-20T01:23:31.308Z,15.03
2018-11-20T01:28:55.406Z,14.23
2018-11-20T01:34:20.716Z,17.67
2018-11-20T01:39:38.661Z,14.60
2018-11-20T01:45:03.932Z,16.33
2018-11-20T01:50:24.757Z,15.50
2018-11-20T01:55:45.920Z,14.53
2018-11-20T02:01:13.885Z,14.77
2018-11-20T02:06:34.128Z,15.63
2018-11-20T02:11:55.076Z,14.97
2018-11-20T02:17:17.886Z,16.17
2018-11-20T02:22:38.214Z,15.80
2018-11-20T02:27:57.075Z,15.50
2018-11-20T02:33:19.648Z,25.87
2018-11-20T02:38:44.921Z,14.57
2018-11-20T02:44:00.663Z,16.10
2018-11-20T02:49:25.135Z,15.43
2018-11-20T02:54:49.349Z,18.53
2018-11-20T03:00:10.298Z,18.77
2018-11-20T03:05:30.916Z,19.63
2018-11-20T03:10:44.928Z,18.83
2018-11-20T03:16:05.701Z,17.47
2018-11-20T03:21:17.765Z,19.93
2018-11-20T03:26:27.055Z,18.17
2018-11-20T03:31:41.593Z,19.40
2018-11-20T03:37:03.738Z,18.37
2018-11-20T03:42:18.991Z,18.90
2018-11-20T03:47:40.003Z,18.27
2018-11-20T03:52:53.026Z,19.80
2018-11-20T03:58:30.774Z,22.10
2018-11-20T04:04:05.619Z,19.90
2018-11-20T04:09:26.532Z,18.13
2018-11-20T04:14:46.076Z,18.47
2018-11-20T04:20:11.241Z,18.10
2018-11-20T04:25:29.011Z,19.83
2018-11-20T04:31:59.107Z,22.60
2018-11-20T04:37:12.584Z,16.23
2018-11-20T04:42:44.492Z,18.53
2018-11-20T04:48:00.697Z,18.63
2018-11-20T04:53:21.884Z,17.10
2018-11-20T04:58:41.862Z,19.03
2018-11-20T05:03:59.669Z,17.27
2018-11-20T05:09:22.119Z,18.20
2018-11-20T05:14:54.151Z,19.13
2018-11-20T05:20:07.649Z,18.47
2018-11-20T05:25:29.074Z,19.87
2018-11-20T05:30:37.524Z,18.20
2018-11-20T05:35:59.381Z,19.50
2018-11-20T05:41:24.370Z,21.10
2018-11-20T05:46:44.998Z,18.33
2018-11-20T05:52:04.725Z,20.20
2018-11-20T05:57:31.064Z,18.07
2018-11-20T06:02:55.389Z,18.37
2018-11-20T06:08:16.919Z,20.43
2018-11-20T06:13:58.123Z,22.00
2018-11-20T06:19:08.980Z,21.10
2018-11-20T06:24:32.373Z,18.17
2018-11-20T06:29:54.406Z,22.63
2018-11-20T06:35:16.425Z,19.17
2018-11-20T06:40:32.073Z,20.27
2018-11-20T06:46:03.536Z,19.63
2018-11-20T06:51:17.519Z,20.30
2018-11-20T06:56:38.884Z,18.77
2018-11-20T07:01:59.917Z,16.13
2018-11-20T07:07:20.851Z,20.07
2018-11-20T07:12:56.829Z,20.23
2018-11-20T07:18:25.012Z,19.80
2018-11-20T07:23:53.296Z,23.30
2018-11-20T07:29:14.655Z,21.20
2018-11-20T07:34:29.864Z,26.70
2018-11-20T07:39:54.775Z,36.93
2018-11-20T07:45:09.480Z,20.93
2018-11-20T07:50:30.381Z,21.80
2018-11-20T07:56:04.944Z,27.10
2018-11-20T08:01:26.058Z,19.83
2018-11-20T08:06:40.080Z,28.90
2018-11-20T08:11:59.213Z,25.87
2018-11-20T08:17:21.696Z,40.10
2018-11-20T08:22:42.325Z,23.23
2018-11-20T08:28:05.419Z,21.83
2018-11-20T08:33:23.111Z,19.23
2018-11-20T08:38:48.305Z,20.47
2018-11-20T08:44:22.484Z,18.37
2018-11-20T08:49:50.304Z,21.50
2018-11-20T08:55:17.838Z,20.10
2018-11-20T09:00:43.805Z,18.00
2018-11-20T09:06:08.803Z,34.37
2018-11-20T09:11:40.281Z,21.57
2018-11-20T09:17:02.131Z,19.73
2018-11-20T09:22:24.327Z,20.30
2018-11-20T09:27:40.309Z,24.23
2018-11-20T09:33:02.549Z,21.13
2018-11-20T09:38:23.769Z,20.70
2018-11-20T09:43:58.577Z,21.03
2018-11-20T09:49:28.857Z,26.87
2018-11-20T09:54:56.422Z,23.37
2018-11-20T10:00:17.118Z,27.00
2018-11-20T10:45:01.492Z,28.30
2018-11-20T10:50:22.563Z,27.07
2018-11-20T10:55:33.690Z,25.10
2018-11-20T11:00:55.173Z,24.53
2018-11-20T11:06:15.906Z,28.23
2018-11-20T11:11:36.767Z,32.03
2018-11-20T11:16:45.269Z,27.30
2018-11-20T11:21:57.709Z,27.17
2018-11-20T11:27:18.723Z,26.30
2018-11-20T11:32:39.429Z,27.73
2018-11-20T11:38:00.985Z,26.60
2018-11-20T11:43:26.331Z,27.20
2018-11-20T11:48:44.464Z,30.67
2018-11-20T11:53:55.580Z,39.90
2018-11-20T11:59:16.389Z,31.90
2018-11-20T12:09:49.204Z,63.60
2018-11-20T12:15:18.076Z,26.60
2018-11-20T12:20:30.148Z,37.60
2018-11-20T12:25:50.650Z,34.63
2018-11-20T12:31:11.830Z,31.53
2018-11-20T12:36:26.489Z,31.37
2018-11-20T12:41:57.140Z,33.63
2018-11-20T12:47:24.583Z,33.00
2018-11-20T12:52:52.407Z,31.67
2018-11-20T12:58:13.995Z,31.60
2018-11-20T13:03:37.098Z,33.27
2018-11-20T13:09:04.537Z,31.57
2018-11-20T13:14:32.135Z,34.53
2018-11-20T13:19:53.058Z,31.47
2018-11-20T13:25:13.861Z,31.00
2018-11-20T13:30:35.098Z,32.93
2018-11-20T13:35:55.997Z,33.63
2018-11-20T13:41:54.318Z,34.63
2018-11-20T13:47:06.354Z,34.43
2018-11-20T13:52:27.200Z,35.10
2018-11-20T13:57:48.290Z,31.57
2018-11-20T14:03:09.378Z,37.70
2018-11-20T14:08:25.252Z,33.53
2018-11-20T14:13:47.519Z,36.60
2018-11-20T14:19:18.439Z,34.33
2018-11-20T14:24:39.255Z,36.43
2018-11-20T14:29:56.739Z,34.10
2018-11-20T14:35:21.222Z,33.30
2018-11-20T14:40:37.697Z,33.30
2018-11-20T14:46:02.589Z,30.70
2018-11-20T14:51:13.365Z,36.03
2018-11-20T14:56:26.043Z,34.17
2018-11-20T15:01:45.271Z,31.70
2018-11-20T15:07:05.642Z,27.93
2018-11-20T15:12:23.305Z,31.07
2018-11-20T15:17:41.706Z,26.03
2018-11-20T15:23:06.997Z,26.43
2018-11-20T15:28:34.967Z,24.60
2018-11-20T15:33:46.598Z,24.70
2018-11-20T15:38:55.525Z,25.20
2018-11-20T15:44:14.136Z,23.77
2018-11-20T15:49:35.351Z,21.67
2018-11-20T15:54:56.194Z,22.63
2018-11-20T16:00:17.328Z,20.67
2018-11-20T16:05:32.687Z,21.27
2018-11-20T16:11:07.047Z,26.33
2018-11-20T16:16:19.350Z,21.07
2018-11-20T16:21:40.192Z,19.83
2018-11-20T16:27:00.871Z,21.73
2018-11-20T16:32:17.929Z,22.60
2018-11-20T16:37:51.530Z,22.43
2018-11-20T16:43:12.482Z,21.17
2018-11-20T16:48:22.396Z,21.53
2018-11-20T16:53:35.271Z,22.87
2018-11-20T16:58:53.960Z,19.40
2018-11-20T17:04:14.439Z,22.80
2018-11-20T17:09:35.589Z,20.87
2018-11-20T17:14:57.514Z,17.87
2018-11-20T17:20:17.874Z,19.63
2018-11-20T17:25:47.162Z,19.50
2018-11-20T17:31:07.839Z,20.23
2018-11-20T17:36:25.624Z,18.73
2018-11-20T17:41:39.620Z,21.23
2018-11-20T17:46:50.912Z,22.93
2018-11-20T17:52:08.866Z,23.40
2018-11-20T17:57:27.566Z,24.07
2018-11-20T18:02:48.791Z,22.30
2018-11-20T18:08:13.220Z,25.27
2018-11-20T18:13:33.806Z,23.93
2018-11-20T18:18:49.363Z,21.50
2018-11-20T18:24:23.084Z,22.97
2018-11-20T18:29:30.965Z,21.93
2018-11-20T18:34:45.452Z,21.70
2018-11-20T18:40:05.822Z,24.53
2018-11-20T18:45:26.421Z,26.00
2018-11-20T18:50:42.113Z,21.90
2018-11-20T18:56:15.447Z,27.70
2018-11-20T19:01:37.026Z,21.87
2018-11-20T19:07:11.101Z,23.87
2018-11-20T19:12:32.528Z,28.17
2018-11-20T19:17:57.275Z,25.07
2018-11-20T19:23:19.130Z,25.90
2018-11-20T19:28:35.218Z,26.17
2018-11-20T19:33:56.248Z,25.93
2018-11-20T19:39:17.175Z,27.10
2018-11-20T19:44:38.639Z,28.53
2018-11-20T19:50:03.667Z,28.57
2018-11-20T19:55:24.419Z,28.03
2018-11-20T20:00:45.013Z,24.87
2018-11-20T20:06:09.269Z,28.90
2018-11-20T20:11:30.354Z,26.20
2018-11-20T20:16:46.728Z,27.77
2018-11-20T20:22:07.725Z,30.50
2018-11-20T20:27:32.675Z,28.40
2018-11-20T20:32:53.679Z,28.17
2018-11-20T20:38:14.536Z,30.02
2018-11-20T20:43:35.279Z,28.83
2018-11-20T20:48:57.330Z,32.10
2018-11-20T20:54:12.541Z,30.87
2018-11-20T20:59:47.739Z,32.27
2018-11-20T21:05:15.514Z,32.10
2018-11-20T21:10:40.388Z,31.97
2018-11-20T21:16:01.463Z,32.10
2018-11-20T21:21:22.446Z,33.77
2018-11-20T21:26:46.284Z,29.50
2018-11-20T21:32:07.039Z,30.23
2018-11-20T21:37:23.221Z,35.50
2018-11-20T21:42:44.101Z,34.37
2018-11-20T21:47:59.045Z,34.37
2018-11-20T21:53:39.070Z,34.53
2018-11-20T21:58:50.601Z,37.90
2018-11-20T22:04:11.658Z,36.53
2018-11-20T22:09:32.219Z,33.87
2018-11-20T22:14:46.818Z,36.90
2018-11-20T22:20:14.241Z,40.50
2018-11-20T22:25:29.488Z,34.93
2018-11-20T22:30:37.986Z,34.13
2018-11-20T22:35:49.722Z,35.47
2018-11-20T22:41:07.506Z,37.10
2018-11-20T22:46:41.561Z,35.70
2018-11-20T22:51:50.977Z,34.73
2018-11-20T22:57:04.211Z,36.50
2018-11-20T23:02:25.301Z,34.10
2018-11-20T23:07:44.427Z,36.03
2018-11-20T23:12:46.986Z,38.77
2018-11-20T23:17:49.495Z,42.67
2018-11-20T23:22:52.706Z,38.33
2018-11-20T23:27:55.467Z,38.90
2018-11-20T23:32:57.977Z,36.40
2018-11-20T23:38:01.599Z,36.77
2018-11-20T23:43:03.967Z,38.13
2018-11-20T23:48:06.210Z,38.73
2018-11-20T23:53:08.734Z,36.93
2018-11-20T23:58:10.919Z,36.67
